Flugplatz Wiesbaden Army Airfield

Bericht für ETOU

vom 20.10. um 17:56 UTC

Wind 6 kt aus 120°

Sichtweite 10 km oder mehr

bedeckt in 12000 ft

Temperatur 15.5°C

Taupunkt 13.5°C

Luftfeuchtigkeit 88%

Luftdruck 1009 hPa

ETOU 201756Z AUTO 12006KT 9999 OVC120 16/14 A2979 RMK AO2 SLP089 60000 T01550135 10167 20147 51018

Prognose für ETOU

vom 20.10. um 00:00 UTC

Zwischen 00:00 UTC und 00:00 UTC

Wind 9 kt aus 80°

Sichtweite 10 km oder mehr

aufgelockert bewölkt in 6000 ft

aufgebrochene Bewölkung in 8000 ft


Zwischen 00:00 und 00:00 UTC übergehend zu

variable Windrichtung mit 6 kt

Sichtweite 10 km oder mehr

aufgebrochene Bewölkung in 7000 ft


Am 21.10. zwischen 00:00 UTC und 00:00 UTC zeitweise

Sichtweite 8000 m

schwacher Regen

TAF AMD ETOU 2016/2117 08009KT 9999 SCT060 BKN080 630901 QNH2975INS BECMG 2019/2020 VRB06KT 9999 BKN070 QNH2978INS TEMPO 2108/2113 8000 -RA TX18/2016Z TN12/2103Z LAST NO AMDS AFT 2016 NEXT 2103
Impressum